createdAt,value
2023-03-26T00:01:13.900Z,68.00
2023-03-26T00:03:41.062Z,67.91
2023-03-26T00:06:16.518Z,68.27
2023-03-26T00:08:45.111Z,68.07
2023-03-26T00:11:13.889Z,68.21
2023-03-26T00:13:42.235Z,67.82
2023-03-26T00:16:09.330Z,67.89
2023-03-26T00:18:35.741Z,67.65
2023-03-26T00:21:05.244Z,68.05
2023-03-26T00:23:33.914Z,67.93
2023-03-26T00:26:01.490Z,68.10
2023-03-26T00:28:29.589Z,68.08
2023-03-26T00:31:01.777Z,68.19
2023-03-26T00:33:28.661Z,67.98
2023-03-26T00:35:58.699Z,68.21
2023-03-26T00:38:26.574Z,68.05
2023-03-26T00:40:54.338Z,68.30
2023-03-26T00:43:22.555Z,68.42
2023-03-26T00:45:51.865Z,68.37
2023-03-26T00:48:18.841Z,68.37
2023-03-26T00:50:46.878Z,68.39
2023-03-26T00:53:14.845Z,68.26
2023-03-26T00:55:43.372Z,68.39
2023-03-26T00:58:12.701Z,68.04
2023-03-26T01:00:58.651Z,68.37
2023-03-26T01:03:29.302Z,68.15
2023-03-26T01:06:04.856Z,67.88
2023-03-26T01:08:38.304Z,67.72
2023-03-26T01:11:15.860Z,68.10
2023-03-26T01:13:56.005Z,67.76
2023-03-26T01:16:38.195Z,67.67
2023-03-26T01:19:33.756Z,67.83
2023-03-26T01:22:00.786Z,67.28
2023-03-26T01:24:27.302Z,67.41
2023-03-26T01:27:09.698Z,67.27
2023-03-26T01:30:06.889Z,67.19
2023-03-26T01:33:21.486Z,67.48
2023-03-26T01:36:19.643Z,67.26
2023-03-26T01:39:00.655Z,67.46
2023-03-26T01:41:33.780Z,67.55
2023-03-26T01:44:20.705Z,67.51
2023-03-26T01:46:48.419Z,67.53
2023-03-26T01:49:14.771Z,67.48
2023-03-26T01:51:42.510Z,67.39
2023-03-26T01:54:12.877Z,67.44
2023-03-26T01:57:04.283Z,67.68
2023-03-26T01:59:53.080Z,67.55
2023-03-26T02:02:42.812Z,67.75
2023-03-26T02:05:18.537Z,67.83
2023-03-26T02:07:52.029Z,68.06
2023-03-26T02:10:29.463Z,68.05
2023-03-26T02:12:57.619Z,68.20
2023-03-26T02:15:24.258Z,68.20
2023-03-26T02:17:52.232Z,68.16
2023-03-26T02:20:20.226Z,68.27
2023-03-26T02:22:47.303Z,68.35
2023-03-26T02:25:20.501Z,68.13
2023-03-26T02:27:47.575Z,68.27
2023-03-26T02:30:17.199Z,68.07
2023-03-26T02:32:46.493Z,68.20
2023-03-26T02:35:13.612Z,68.01
2023-03-26T02:37:42.130Z,68.10
2023-03-26T02:40:11.792Z,68.26
2023-03-26T02:42:39.146Z,68.27
2023-03-26T02:45:07.849Z,68.43
2023-03-26T02:47:34.746Z,68.25
2023-03-26T02:50:01.534Z,68.38
2023-03-26T02:52:27.944Z,68.30
2023-03-26T02:54:54.378Z,68.46
2023-03-26T02:57:21.216Z,68.63
2023-03-26T02:59:50.259Z,68.44
2023-03-26T03:02:18.274Z,68.63
2023-03-26T03:04:44.908Z,68.72
2023-03-26T03:07:14.350Z,68.80
2023-03-26T03:09:41.131Z,68.76
2023-03-26T03:12:07.535Z,68.87
2023-03-26T03:14:34.018Z,68.96
2023-03-26T03:17:00.530Z,69.01
2023-03-26T03:19:27.070Z,69.10
2023-03-26T03:21:53.454Z,69.05
2023-03-26T03:24:19.825Z,69.08
2023-03-26T03:26:48.019Z,68.67
2023-03-26T03:29:14.338Z,68.44
2023-03-26T03:31:41.311Z,68.47
2023-03-26T03:34:07.665Z,68.38
2023-03-26T03:36:38.203Z,68.34
2023-03-26T03:39:05.116Z,68.59
2023-03-26T03:41:31.482Z,68.63
2023-03-26T03:43:59.775Z,68.75
2023-03-26T03:46:26.217Z,68.61
2023-03-26T03:48:52.617Z,68.91
2023-03-26T03:51:21.604Z,68.75
2023-03-26T03:53:47.968Z,68.76
2023-03-26T03:56:14.749Z,68.98
2023-03-26T03:58:41.672Z,69.15
2023-03-26T04:01:08.041Z,69.03
2023-03-26T04:03:38.743Z,69.14
2023-03-26T04:06:11.011Z,69.01
2023-03-26T04:08:37.431Z,68.96
2023-03-26T04:11:04.575Z,68.73
2023-03-26T04:13:31.159Z,68.94
2023-03-26T04:15:57.888Z,68.97
2023-03-26T04:18:26.280Z,68.85
2023-03-26T04:20:54.517Z,69.03
2023-03-26T04:23:22.410Z,68.96
2023-03-26T04:25:53.755Z,69.20
2023-03-26T04:29:00.003Z,69.14
2023-03-26T04:31:31.158Z,68.81
2023-03-26T04:34:06.908Z,68.87
2023-03-26T04:36:34.278Z,68.95
2023-03-26T04:39:04.859Z,68.89
2023-03-26T04:41:32.330Z,68.85
2023-03-26T04:44:01.735Z,68.66
2023-03-26T04:46:28.127Z,68.71
2023-03-26T04:48:54.985Z,68.75
2023-03-26T04:51:27.350Z,69.01
2023-03-26T04:54:00.337Z,68.79
2023-03-26T04:56:43.126Z,68.78
2023-03-26T04:59:14.744Z,68.79
2023-03-26T05:01:41.637Z,68.51
2023-03-26T05:04:08.248Z,68.73
2023-03-26T05:06:34.791Z,69.09
2023-03-26T05:09:02.127Z,69.46
2023-03-26T05:11:28.624Z,69.32
2023-03-26T05:13:54.974Z,69.38
2023-03-26T05:16:22.464Z,69.42
2023-03-26T05:18:48.831Z,69.63
2023-03-26T05:21:15.364Z,69.27
2023-03-26T05:23:41.770Z,69.14
2023-03-26T05:26:09.898Z,69.52
2023-03-26T05:28:36.807Z,69.72
2023-03-26T05:31:03.484Z,69.96
2023-03-26T05:33:30.407Z,69.71
2023-03-26T05:36:02.339Z,70.08
2023-03-26T05:38:29.982Z,69.98
2023-03-26T05:41:01.228Z,70.40
2023-03-26T05:43:28.541Z,70.33
2023-03-26T05:45:54.943Z,70.55
2023-03-26T05:48:22.291Z,70.11
2023-03-26T05:50:50.671Z,70.31
2023-03-26T05:53:18.220Z,70.11
2023-03-26T05:55:45.935Z,70.00
2023-03-26T05:58:13.006Z,69.84
2023-03-26T06:00:39.472Z,70.02
2023-03-26T06:03:06.141Z,70.21
2023-03-26T06:05:37.301Z,70.10
2023-03-26T06:08:04.429Z,70.10
2023-03-26T06:10:31.404Z,70.07
2023-03-26T06:12:58.045Z,70.07
2023-03-26T06:15:24.456Z,70.06
2023-03-26T06:17:50.893Z,70.25
2023-03-26T06:20:17.293Z,70.29
2023-03-26T06:22:43.762Z,70.26
2023-03-26T06:25:10.111Z,70.50
2023-03-26T06:27:36.456Z,70.36
2023-03-26T06:30:03.008Z,70.33
2023-03-26T06:32:29.409Z,70.31
2023-03-26T06:34:55.975Z,70.54
2023-03-26T06:37:22.310Z,70.20
2023-03-26T06:39:48.671Z,70.09
2023-03-26T06:42:15.028Z,70.01
2023-03-26T06:44:41.436Z,69.82
2023-03-26T06:47:07.862Z,69.54
2023-03-26T06:49:34.515Z,69.56
2023-03-26T06:52:02.849Z,69.41
2023-03-26T06:54:29.399Z,69.03
2023-03-26T06:56:56.452Z,69.11
2023-03-26T06:59:22.924Z,69.14
2023-03-26T07:01:49.284Z,69.09
2023-03-26T07:04:15.843Z,69.32
2023-03-26T07:06:42.297Z,69.40
2023-03-26T07:09:08.644Z,69.80
2023-03-26T07:11:35.190Z,69.50
2023-03-26T07:14:01.529Z,69.71
2023-03-26T07:16:28.120Z,69.60
2023-03-26T07:18:55.290Z,69.79
2023-03-26T07:21:22.604Z,69.59
2023-03-26T07:23:49.344Z,69.62
2023-03-26T07:26:26.459Z,69.82
2023-03-26T07:29:04.812Z,69.53
2023-03-26T07:31:45.649Z,69.28
2023-03-26T07:34:42.822Z,68.82
2023-03-26T07:37:31.624Z,68.32
2023-03-26T07:40:10.607Z,68.25
2023-03-26T07:42:36.945Z,67.35
2023-03-26T07:45:30.312Z,68.00
2023-03-26T07:47:57.143Z,67.52
2023-03-26T07:50:24.813Z,67.44
2023-03-26T07:52:51.849Z,67.29
2023-03-26T07:55:19.509Z,67.14
2023-03-26T07:58:00.957Z,67.51
2023-03-26T08:00:35.043Z,67.34
2023-03-26T08:03:23.118Z,66.76
2023-03-26T08:06:07.708Z,66.14
2023-03-26T08:09:11.375Z,66.88
2023-03-26T08:11:53.510Z,67.27
2023-03-26T08:14:44.293Z,67.03
2023-03-26T08:17:53.269Z,66.60
2023-03-26T08:20:31.088Z,66.82
2023-03-26T08:23:09.433Z,67.23
2023-03-26T08:25:53.389Z,67.25
2023-03-26T08:28:30.466Z,67.04
2023-03-26T08:30:57.752Z,66.41
2023-03-26T08:33:27.729Z,66.47
2023-03-26T08:35:54.200Z,66.19
2023-03-26T08:38:32.895Z,66.44
2023-03-26T08:41:11.679Z,66.48
2023-03-26T08:43:50.185Z,65.99
2023-03-26T08:46:37.987Z,65.42
2023-03-26T08:49:39.876Z,64.93
2023-03-26T08:52:40.332Z,65.19
2023-03-26T08:55:36.419Z,64.96
2023-03-26T08:58:21.494Z,64.47
2023-03-26T09:01:06.746Z,64.61
2023-03-26T09:03:57.585Z,65.08
2023-03-26T09:07:01.881Z,65.13
2023-03-26T09:09:49.535Z,65.40
2023-03-26T09:12:48.018Z,65.36
2023-03-26T09:15:42.274Z,65.45
2023-03-26T09:18:29.306Z,65.31
2023-03-26T09:21:28.914Z,65.13
2023-03-26T09:24:27.667Z,65.24
2023-03-26T09:27:07.711Z,65.33
2023-03-26T09:30:01.149Z,65.43
2023-03-26T09:32:51.575Z,65.58
2023-03-26T09:35:50.560Z,65.42
2023-03-26T09:38:32.328Z,65.84
2023-03-26T09:41:07.876Z,65.90
2023-03-26T09:43:43.667Z,66.00
2023-03-26T09:46:34.334Z,65.75
2023-03-26T09:49:45.500Z,65.72
2023-03-26T09:52:40.829Z,65.88
2023-03-26T09:55:20.375Z,66.29
2023-03-26T09:58:04.694Z,66.47
2023-03-26T10:00:47.918Z,66.05
2023-03-26T10:03:14.341Z,65.67
2023-03-26T10:05:58.622Z,65.53
2023-03-26T10:08:41.832Z,65.32
2023-03-26T10:11:11.128Z,64.81
2023-03-26T10:13:56.197Z,64.49
2023-03-26T10:16:47.992Z,64.25
2023-03-26T10:19:20.561Z,63.25
2023-03-26T10:22:03.790Z,63.19
2023-03-26T10:24:48.419Z,63.35
2023-03-26T10:27:52.427Z,63.15
2023-03-26T10:30:47.139Z,63.55
2023-03-26T10:33:33.657Z,63.41
2023-03-26T10:36:01.030Z,63.49
2023-03-26T10:38:27.433Z,62.91
2023-03-26T10:41:16.807Z,63.12
2023-03-26T10:44:07.507Z,62.97
2023-03-26T10:46:50.228Z,61.98
2023-03-26T10:49:35.609Z,62.69
2023-03-26T10:52:08.060Z,62.16
2023-03-26T10:54:53.341Z,62.42
2023-03-26T10:57:41.191Z,62.40
2023-03-26T11:00:17.337Z,61.82
2023-03-26T11:02:54.257Z,61.38
2023-03-26T11:05:58.099Z,60.73
2023-03-26T11:08:51.450Z,60.23
2023-03-26T11:11:23.985Z,60.65
2023-03-26T11:14:27.963Z,60.31
2023-03-26T11:17:39.452Z,60.54
2023-03-26T11:20:30.288Z,60.15
2023-03-26T11:23:30.850Z,59.73
2023-03-26T11:26:55.884Z,59.46
2023-03-26T11:29:43.079Z,59.07
2023-03-26T11:32:15.543Z,57.88
2023-03-26T11:34:52.839Z,57.35
2023-03-26T11:37:46.308Z,57.21
2023-03-26T11:40:37.263Z,57.77
2023-03-26T11:43:07.725Z,57.81
2023-03-26T11:45:42.279Z,57.57
2023-03-26T11:48:17.182Z,58.06
2023-03-26T11:50:55.674Z,58.13
2023-03-26T11:53:27.559Z,58.27
2023-03-26T11:56:09.277Z,57.40
2023-03-26T11:58:45.628Z,58.04
2023-03-26T12:01:17.281Z,57.53
2023-03-26T12:03:55.688Z,56.66
2023-03-26T12:06:25.720Z,57.36
2023-03-26T12:08:53.653Z,56.37
2023-03-26T12:11:27.217Z,56.53
2023-03-26T12:14:00.798Z,56.50
2023-03-26T12:16:27.909Z,55.98
2023-03-26T12:19:19.390Z,56.39
2023-03-26T12:21:48.380Z,55.99
2023-03-26T12:24:29.567Z,56.47
2023-03-26T12:27:25.257Z,56.68
2023-03-26T12:29:52.719Z,55.87
2023-03-26T12:32:19.131Z,55.55
2023-03-26T12:34:45.631Z,55.14
2023-03-26T12:37:36.960Z,55.35
2023-03-26T12:40:26.380Z,55.29
2023-03-26T12:44:54.889Z,56.10
2023-03-26T12:45:44.626Z,55.30
2023-03-26T12:48:15.443Z,55.14
2023-03-26T12:50:51.016Z,55.14
2023-03-26T12:53:31.117Z,55.44
2023-03-26T12:56:01.919Z,55.58
2023-03-26T12:58:51.114Z,55.37
2023-03-26T13:01:42.073Z,55.57
2023-03-26T13:04:27.498Z,56.02
2023-03-26T13:07:23.514Z,55.82
2023-03-26T13:10:22.709Z,56.09
2023-03-26T13:13:27.832Z,55.50
2023-03-26T13:16:19.466Z,55.75
2023-03-26T13:19:15.711Z,55.60
2023-03-26T13:21:45.962Z,56.23
2023-03-26T13:24:26.515Z,56.81
2023-03-26T13:27:18.316Z,56.46
2023-03-26T13:29:56.251Z,56.75
2023-03-26T13:32:50.504Z,55.80
2023-03-26T13:35:46.825Z,56.36
2023-03-26T13:38:21.902Z,56.96
2023-03-26T13:41:30.198Z,57.07
2023-03-26T13:44:05.355Z,56.72
2023-03-26T13:46:51.868Z,56.70
2023-03-26T13:49:40.593Z,55.10
2023-03-26T13:52:22.310Z,55.28
2023-03-26T13:55:12.785Z,55.05
2023-03-26T13:57:43.490Z,55.94
2023-03-26T14:00:16.323Z,56.04
2023-03-26T14:02:47.728Z,56.11
2023-03-26T14:05:21.159Z,56.71
2023-03-26T14:07:57.230Z,56.36
2023-03-26T14:10:23.759Z,54.96
2023-03-26T14:13:16.208Z,56.46
2023-03-26T14:15:55.791Z,56.12
2023-03-26T14:18:43.268Z,55.51
2023-03-26T14:21:40.739Z,54.79
2023-03-26T14:24:22.470Z,54.96
2023-03-26T14:26:56.026Z,54.95
2023-03-26T14:29:57.505Z,55.89
2023-03-26T14:32:51.276Z,56.03
2023-03-26T14:35:28.199Z,55.14
2023-03-26T14:38:00.795Z,55.02
2023-03-26T14:40:33.295Z,54.04
2023-03-26T14:43:18.187Z,53.40
2023-03-26T14:45:44.504Z,53.52
2023-03-26T14:48:16.990Z,53.68
2023-03-26T14:50:58.157Z,54.18
2023-03-26T14:53:34.522Z,53.99
2023-03-26T14:56:15.809Z,53.81
2023-03-26T14:59:01.108Z,53.82
2023-03-26T15:01:45.916Z,52.80
2023-03-26T15:04:27.297Z,52.28
2023-03-26T15:07:41.416Z,51.10
2023-03-26T15:10:35.646Z,52.90
2023-03-26T15:13:26.625Z,52.02
2023-03-26T15:16:08.310Z,52.41
2023-03-26T15:19:03.932Z,51.97
2023-03-26T15:22:07.898Z,51.68
2023-03-26T15:24:52.753Z,52.13
2023-03-26T15:27:47.356Z,52.09
2023-03-26T15:30:13.688Z,51.59
2023-03-26T15:33:22.640Z,50.93
2023-03-26T15:36:01.000Z,52.42
2023-03-26T15:38:38.454Z,52.63
2023-03-26T15:41:30.540Z,51.88
2023-03-26T15:46:38.499Z,49.79
2023-03-26T15:49:23.001Z,49.89
2023-03-26T15:52:06.286Z,51.33
2023-03-26T15:54:45.289Z,51.44
2023-03-26T15:57:47.060Z,50.22
2023-03-26T16:00:22.583Z,51.73
2023-03-26T16:03:10.666Z,51.37
2023-03-26T16:06:02.232Z,52.21
2023-03-26T16:08:40.986Z,52.23
2023-03-26T16:11:12.463Z,52.25
2023-03-26T16:13:48.872Z,52.01
2023-03-26T16:16:15.369Z,51.57
2023-03-26T16:18:48.279Z,51.54
2023-03-26T16:21:31.346Z,51.04
2023-03-26T16:24:08.406Z,49.86
2023-03-26T16:26:54.550Z,50.62
2023-03-26T16:29:27.962Z,50.89
2023-03-26T16:32:09.775Z,51.00
2023-03-26T16:34:57.283Z,50.89
2023-03-26T16:37:36.234Z,51.00
2023-03-26T16:40:22.186Z,50.80
2023-03-26T16:43:24.173Z,51.00
2023-03-26T16:45:59.721Z,50.58
2023-03-26T16:48:35.770Z,50.80
2023-03-26T16:51:05.139Z,50.88
2023-03-26T16:53:41.656Z,50.61
2023-03-26T16:56:14.100Z,49.85
2023-03-26T16:58:40.753Z,48.98
2023-03-26T17:01:17.550Z,49.50
2023-03-26T17:03:56.122Z,48.22
2023-03-26T17:06:45.652Z,49.84
2023-03-26T17:09:27.901Z,49.63
2023-03-26T17:12:14.825Z,50.14
2023-03-26T17:14:49.998Z,49.94
2023-03-26T17:17:28.566Z,48.15
2023-03-26T17:20:33.530Z,48.39
2023-03-26T17:23:11.542Z,47.71
2023-03-26T17:25:57.433Z,47.75
2023-03-26T17:28:50.600Z,48.25
2023-03-26T17:31:39.865Z,48.99
2023-03-26T17:34:33.096Z,48.47
2023-03-26T17:37:01.174Z,48.96
2023-03-26T17:39:39.861Z,48.31
2023-03-26T17:42:26.783Z,48.37
2023-03-26T17:45:17.583Z,49.34
2023-03-26T17:47:51.619Z,49.31
2023-03-26T17:50:25.321Z,49.45
2023-03-26T17:53:02.538Z,49.12
2023-03-26T17:55:39.652Z,47.48
2023-03-26T17:58:19.170Z,48.42
2023-03-26T18:00:52.172Z,48.63
2023-03-26T18:03:23.549Z,48.42
2023-03-26T18:05:58.238Z,48.95
2023-03-26T18:08:27.560Z,48.78
2023-03-26T18:11:09.326Z,47.73
2023-03-26T18:13:55.538Z,49.10
2023-03-26T18:16:28.471Z,49.50
2023-03-26T18:19:00.620Z,49.03
2023-03-26T18:21:32.769Z,49.29
2023-03-26T18:24:01.021Z,49.63
2023-03-26T18:26:38.490Z,49.49
2023-03-26T18:29:37.828Z,49.84
2023-03-26T18:32:10.068Z,50.31
2023-03-26T18:34:49.759Z,50.23
2023-03-26T18:37:23.251Z,49.87
2023-03-26T18:39:57.165Z,50.52
2023-03-26T18:42:25.554Z,50.40
2023-03-26T18:44:53.494Z,50.60
2023-03-26T18:47:28.048Z,50.51
2023-03-26T18:49:57.321Z,51.15
2023-03-26T18:52:23.820Z,51.00
2023-03-26T18:54:54.008Z,50.67
2023-03-26T18:57:23.975Z,51.42
2023-03-26T18:59:52.610Z,51.09
2023-03-26T19:02:20.430Z,51.45
2023-03-26T19:04:49.477Z,50.76
2023-03-26T19:07:24.000Z,50.77
2023-03-26T19:09:56.177Z,51.11
2023-03-26T19:12:32.822Z,50.96
2023-03-26T19:15:14.618Z,50.97
2023-03-26T19:18:14.342Z,51.10
2023-03-26T19:20:44.246Z,51.72
2023-03-26T19:23:25.661Z,51.37
2023-03-26T19:25:58.000Z,52.08
2023-03-26T19:28:31.702Z,52.17
2023-03-26T19:31:08.146Z,52.35
2023-03-26T19:33:40.436Z,52.22
2023-03-26T19:36:13.007Z,52.29
2023-03-26T19:38:48.895Z,52.81
2023-03-26T19:41:30.394Z,52.62
2023-03-26T19:44:00.726Z,51.98
2023-03-26T19:46:29.139Z,52.41
2023-03-26T19:48:57.686Z,52.06
2023-03-26T19:51:32.292Z,52.57
2023-03-26T19:54:03.001Z,52.31
2023-03-26T19:56:30.080Z,52.18
2023-03-26T19:58:57.401Z,52.22
2023-03-26T20:01:28.440Z,52.07
2023-03-26T20:03:58.826Z,52.74
2023-03-26T20:06:41.691Z,52.61
2023-03-26T20:09:10.912Z,52.49
2023-03-26T20:11:39.242Z,52.31
2023-03-26T20:14:18.239Z,52.09
2023-03-26T20:16:45.797Z,52.69
2023-03-26T20:19:14.073Z,52.31
2023-03-26T20:21:41.534Z,52.37
2023-03-26T20:24:14.676Z,52.44
2023-03-26T20:26:41.549Z,52.67
2023-03-26T20:29:07.926Z,52.86
2023-03-26T20:31:34.473Z,52.92
2023-03-26T20:34:00.889Z,52.90
2023-03-26T20:36:33.916Z,53.27
2023-03-26T20:39:06.058Z,52.84
2023-03-26T20:41:34.215Z,52.85
2023-03-26T20:44:00.972Z,53.22
2023-03-26T20:46:30.537Z,53.21
2023-03-26T20:48:58.731Z,53.10
2023-03-26T20:51:25.240Z,52.90
2023-03-26T20:53:51.888Z,53.06
2023-03-26T20:56:20.258Z,53.07
2023-03-26T20:58:54.791Z,53.24
2023-03-26T21:01:27.783Z,53.13
2023-03-26T21:03:54.455Z,53.21
2023-03-26T21:06:20.779Z,53.66
2023-03-26T21:08:47.378Z,53.94
2023-03-26T21:11:26.673Z,53.52
2023-03-26T21:14:09.254Z,54.13
2023-03-26T21:16:36.467Z,53.70
2023-03-26T21:19:03.321Z,54.26
2023-03-26T21:21:59.965Z,53.93
2023-03-26T21:24:41.784Z,53.79
2023-03-26T21:27:22.234Z,54.53
2023-03-26T21:29:48.888Z,54.40
2023-03-26T21:32:15.533Z,54.37
2023-03-26T21:34:55.719Z,54.36
2023-03-26T21:37:24.825Z,54.86
2023-03-26T21:39:51.606Z,55.06
2023-03-26T21:42:18.512Z,54.83
2023-03-26T21:44:45.191Z,55.04
2023-03-26T21:47:12.060Z,55.15
2023-03-26T21:49:38.791Z,54.91
2023-03-26T21:52:05.736Z,55.04
2023-03-26T21:54:33.077Z,55.00
2023-03-26T21:57:39.162Z,54.77
2023-03-26T22:00:18.072Z,55.24
2023-03-26T22:03:00.137Z,55.09
2023-03-26T22:05:32.756Z,54.85
2023-03-26T22:08:04.427Z,55.34
2023-03-26T22:10:32.016Z,55.13
2023-03-26T22:12:58.834Z,55.53
2023-03-26T22:15:31.121Z,55.61
2023-03-26T22:18:02.526Z,55.55
2023-03-26T22:20:29.297Z,55.49
2023-03-26T22:22:55.839Z,55.85
2023-03-26T22:25:24.078Z,55.59
2023-03-26T22:27:51.476Z,55.47
2023-03-26T22:30:18.769Z,55.83
2023-03-26T22:32:45.492Z,55.89
2023-03-26T22:35:12.888Z,55.74
2023-03-26T22:37:39.869Z,55.83
2023-03-26T22:40:13.139Z,55.98
2023-03-26T22:42:40.103Z,56.30
2023-03-26T22:45:07.282Z,56.30
2023-03-26T22:47:35.455Z,56.36
2023-03-26T22:50:03.125Z,56.44
2023-03-26T22:52:30.470Z,56.29
2023-03-26T22:54:57.378Z,56.11
2023-03-26T22:57:24.415Z,56.18
2023-03-26T22:59:51.964Z,56.42
2023-03-26T23:02:18.645Z,56.28
2023-03-26T23:04:46.155Z,56.41
2023-03-26T23:07:12.514Z,56.70
2023-03-26T23:09:38.956Z,56.76
2023-03-26T23:12:05.743Z,56.47
2023-03-26T23:14:36.156Z,56.80
2023-03-26T23:17:02.575Z,56.64
2023-03-26T23:19:30.125Z,56.64
2023-03-26T23:21:57.582Z,56.83
2023-03-26T23:24:26.378Z,56.69
2023-03-26T23:26:53.140Z,57.16
2023-03-26T23:29:19.697Z,56.72
2023-03-26T23:31:46.230Z,56.98
2023-03-26T23:34:13.471Z,57.19
2023-03-26T23:36:40.811Z,57.09
2023-03-26T23:39:07.285Z,57.41
2023-03-26T23:41:34.480Z,57.24
2023-03-26T23:44:01.476Z,57.38
2023-03-26T23:46:34.809Z,57.26
2023-03-26T23:49:04.342Z,57.58
2023-03-26T23:51:31.759Z,57.48
2023-03-26T23:53:59.687Z,57.42
2023-03-26T23:56:27.568Z,57.58
2023-03-26T23:58:55.138Z,57.51
